createdAt,value
2022-09-17T00:00:24.034Z,3.13
2022-09-17T00:05:31.198Z,3.20
2022-09-17T00:10:40.549Z,2.83
2022-09-17T00:15:48.639Z,3.10
2022-09-17T00:20:56.263Z,3.37
2022-09-17T00:26:06.666Z,3.50
2022-09-17T00:31:13.535Z,3.60
2022-09-17T00:36:20.754Z,3.17
2022-09-17T00:41:30.673Z,3.70
2022-09-17T00:46:40.687Z,3.13
2022-09-17T00:51:50.636Z,2.13
2022-09-17T00:56:58.930Z,1.90
2022-09-17T01:02:06.560Z,2.00
2022-09-17T01:07:14.603Z,1.90
2022-09-17T01:12:22.549Z,2.00
2022-09-17T01:17:30.448Z,1.63
2022-09-17T01:22:40.213Z,2.10
2022-09-17T01:27:50.037Z,2.00
2022-09-17T01:32:59.795Z,1.90
2022-09-17T01:38:07.795Z,1.63
2022-09-17T01:43:18.056Z,1.80
2022-09-17T01:48:28.417Z,1.43
2022-09-17T01:53:39.009Z,1.67
2022-09-17T01:58:49.060Z,1.60
2022-09-17T02:03:58.748Z,1.80
2022-09-17T02:09:10.785Z,1.70
2022-09-17T02:14:21.257Z,1.60
2022-09-17T02:19:29.328Z,1.40
2022-09-17T02:24:39.046Z,1.50
2022-09-17T02:29:46.458Z,1.70
2022-09-17T02:34:53.412Z,1.73
2022-09-17T02:40:00.456Z,1.80
2022-09-17T02:45:10.279Z,1.50
2022-09-17T02:50:20.150Z,1.80
2022-09-17T02:55:29.130Z,1.63
2022-09-17T03:00:36.204Z,1.40
2022-09-17T03:05:45.701Z,1.50
2022-09-17T03:10:52.536Z,1.70
2022-09-17T03:15:59.635Z,1.50
2022-09-17T03:21:06.426Z,1.57
2022-09-17T03:26:13.288Z,1.40
2022-09-17T03:31:20.260Z,1.40
2022-09-17T03:36:27.236Z,1.20
2022-09-17T03:41:34.030Z,1.60
2022-09-17T03:46:40.911Z,1.37
2022-09-17T03:51:47.919Z,1.40
2022-09-17T03:56:54.739Z,1.17
2022-09-17T04:02:01.672Z,1.43
2022-09-17T04:07:08.566Z,1.60
2022-09-17T04:12:15.439Z,1.60
2022-09-17T04:17:22.245Z,1.80
2022-09-17T04:22:29.072Z,2.00
2022-09-17T04:27:35.916Z,1.57
2022-09-17T04:32:44.551Z,1.50
2022-09-17T04:37:53.837Z,1.20
2022-09-17T04:43:02.781Z,1.30
2022-09-17T04:48:09.576Z,1.50
2022-09-17T04:53:17.039Z,1.17
2022-09-17T04:58:23.917Z,1.27
2022-09-17T05:03:30.963Z,1.00
2022-09-17T05:08:37.837Z,1.20
2022-09-17T05:13:44.716Z,1.07
2022-09-17T05:18:52.271Z,1.13
2022-09-17T05:23:59.212Z,1.20
2022-09-17T05:29:06.019Z,1.10
2022-09-17T05:34:13.291Z,1.13
2022-09-17T05:39:21.840Z,1.20
2022-09-17T05:44:30.411Z,1.20
2022-09-17T05:49:37.205Z,1.03
2022-09-17T05:54:45.065Z,0.90
2022-09-17T05:59:52.047Z,1.00
2022-09-17T06:05:01.010Z,1.00
2022-09-17T06:10:08.703Z,0.83
2022-09-17T06:15:17.075Z,0.90
2022-09-17T06:20:24.355Z,1.00
2022-09-17T06:25:32.354Z,1.00
2022-09-17T06:30:39.350Z,0.93
2022-09-17T06:35:46.185Z,0.80
2022-09-17T06:40:54.986Z,1.10
2022-09-17T06:46:06.161Z,0.90
2022-09-17T06:51:13.997Z,0.80
2022-09-17T06:56:20.907Z,0.87
2022-09-17T07:01:27.846Z,0.87
2022-09-17T07:06:34.713Z,0.90
2022-09-17T07:11:41.767Z,0.80
2022-09-17T07:16:48.605Z,0.70
2022-09-17T07:21:55.440Z,0.80
2022-09-17T07:27:02.857Z,0.90
2022-09-17T07:32:09.743Z,0.67
2022-09-17T07:37:17.517Z,0.80
2022-09-17T07:42:24.315Z,0.90
2022-09-17T07:47:31.662Z,0.77
2022-09-17T07:52:38.479Z,0.80
2022-09-17T07:57:45.303Z,0.70
2022-09-17T08:02:54.857Z,0.80
2022-09-17T08:08:03.979Z,0.80
2022-09-17T08:13:10.718Z,0.80
2022-09-17T08:18:19.019Z,0.77
2022-09-17T08:23:26.751Z,0.70
2022-09-17T08:28:33.668Z,0.87
2022-09-17T08:33:42.257Z,0.93
2022-09-17T08:38:50.432Z,0.83
2022-09-17T08:43:58.458Z,0.60
2022-09-17T08:49:09.410Z,0.70
2022-09-17T08:54:19.227Z,0.70
2022-09-17T08:59:29.152Z,0.80
2022-09-17T09:04:37.206Z,0.77
2022-09-17T09:09:47.113Z,0.73
2022-09-17T09:14:56.859Z,1.00
2022-09-17T09:20:05.738Z,0.73
2022-09-17T09:25:15.520Z,0.80
2022-09-17T09:30:24.619Z,0.80
2022-09-17T09:35:34.644Z,0.70
2022-09-17T09:40:43.530Z,0.70
2022-09-17T09:45:51.575Z,0.93
2022-09-17T09:51:06.632Z,0.80
2022-09-17T09:56:13.506Z,0.80
2022-09-17T10:01:22.614Z,0.90
2022-09-17T10:06:32.144Z,0.70
2022-09-17T10:11:39.689Z,0.80
2022-09-17T10:16:46.593Z,0.70
2022-09-17T10:21:53.800Z,0.63
2022-09-17T10:27:03.690Z,0.80
2022-09-17T10:32:13.530Z,0.60
2022-09-17T10:37:23.390Z,0.70
2022-09-17T10:42:30.218Z,0.70
2022-09-17T10:47:39.920Z,0.70
2022-09-17T10:52:49.628Z,0.80
2022-09-17T10:57:59.383Z,0.50
2022-09-17T11:03:09.173Z,0.60
2022-09-17T11:08:17.140Z,0.70
2022-09-17T11:13:26.915Z,0.80
2022-09-17T11:18:36.974Z,0.67
2022-09-17T11:23:46.826Z,0.60
2022-09-17T11:28:56.569Z,0.70
2022-09-17T11:34:04.440Z,0.67
2022-09-17T11:39:14.138Z,0.60
2022-09-17T11:44:25.706Z,0.77
2022-09-17T11:49:35.484Z,0.70
2022-09-17T11:54:45.275Z,1.07
2022-09-17T11:59:55.054Z,0.70
2022-09-17T12:05:05.021Z,0.70
2022-09-17T12:10:14.809Z,0.70
2022-09-17T12:15:24.933Z,0.70
2022-09-17T12:20:34.696Z,0.60
2022-09-17T12:25:44.471Z,0.80
2022-09-17T12:30:54.582Z,0.80
2022-09-17T12:36:05.798Z,0.70
2022-09-17T12:41:15.782Z,0.70
2022-09-17T12:46:22.034Z,0.80
2022-09-17T12:51:31.886Z,0.60
2022-09-17T12:56:41.707Z,0.70
2022-09-17T13:01:51.645Z,0.70
2022-09-17T13:07:03.197Z,0.60
2022-09-17T13:12:11.464Z,0.80
2022-09-17T13:17:21.319Z,0.70
2022-09-17T13:22:31.283Z,0.83
2022-09-17T13:27:39.053Z,0.80
2022-09-17T13:32:47.972Z,0.67
2022-09-17T13:37:54.118Z,0.80
2022-09-17T13:43:04.093Z,0.80
2022-09-17T13:48:13.003Z,0.70
2022-09-17T13:53:26.251Z,0.70
2022-09-17T13:58:35.932Z,0.73
2022-09-17T14:03:43.602Z,0.80
2022-09-17T14:08:54.250Z,0.53
2022-09-17T14:14:05.262Z,0.70
2022-09-17T14:19:15.485Z,0.70
2022-09-17T14:24:26.261Z,0.70
2022-09-17T14:29:36.410Z,0.60
2022-09-17T14:34:43.500Z,0.87
2022-09-17T14:39:53.155Z,0.70
2022-09-17T14:45:03.563Z,0.60
2022-09-17T14:50:13.398Z,0.80
2022-09-17T14:55:21.425Z,0.87
2022-09-17T15:00:32.098Z,0.70
2022-09-17T15:05:41.399Z,0.60
2022-09-17T15:10:51.465Z,0.80
2022-09-17T15:16:01.511Z,0.60
2022-09-17T15:21:11.444Z,0.70
2022-09-17T15:26:21.142Z,1.17
2022-09-17T15:31:30.850Z,1.20
2022-09-17T15:36:37.769Z,1.67
2022-09-17T15:41:44.857Z,2.07
2022-09-17T15:46:52.103Z,1.30
2022-09-17T15:52:01.927Z,0.80
2022-09-17T15:57:11.768Z,0.80
2022-09-17T16:02:21.749Z,0.90
2022-09-17T16:07:31.551Z,0.80
2022-09-17T16:12:38.424Z,1.10
2022-09-17T16:17:47.665Z,0.97
2022-09-17T16:22:55.283Z,0.80
2022-09-17T16:28:04.574Z,0.80
2022-09-17T16:33:13.447Z,0.80
2022-09-17T16:38:20.418Z,0.80
2022-09-17T16:43:27.477Z,0.83
2022-09-17T16:48:34.884Z,0.80
2022-09-17T16:53:42.091Z,0.80
2022-09-17T16:58:49.152Z,1.13
2022-09-17T17:03:57.644Z,1.13
2022-09-17T17:09:04.773Z,1.00
2022-09-17T17:14:14.770Z,1.00
2022-09-17T17:19:20.209Z,1.50
2022-09-17T17:24:27.066Z,1.30
2022-09-17T17:29:35.472Z,1.53
2022-09-17T17:34:42.459Z,1.30
2022-09-17T17:39:49.399Z,1.00
2022-09-17T17:44:56.293Z,1.10
2022-09-17T17:50:03.325Z,0.90
2022-09-17T17:55:10.152Z,1.00
2022-09-17T18:00:18.763Z,0.80
2022-09-17T18:05:25.796Z,0.90
2022-09-17T18:10:32.712Z,0.80
2022-09-17T18:15:39.541Z,0.80
2022-09-17T18:20:46.382Z,0.80
2022-09-17T18:25:55.714Z,0.80
2022-09-17T18:31:05.482Z,1.00
2022-09-17T18:36:12.509Z,0.80
2022-09-17T18:41:19.431Z,0.97
2022-09-17T18:46:26.569Z,0.80
2022-09-17T18:51:33.663Z,0.80
2022-09-17T18:56:42.073Z,0.60
2022-09-17T19:01:49.282Z,0.90
2022-09-17T19:06:56.684Z,0.80
2022-09-17T19:12:03.680Z,0.90
2022-09-17T19:17:10.536Z,0.90
2022-09-17T19:22:18.287Z,0.80
2022-09-17T19:27:25.082Z,0.83
2022-09-17T19:32:33.067Z,0.80
2022-09-17T19:37:40.188Z,0.90
2022-09-17T19:42:50.383Z,0.80
2022-09-17T19:47:58.830Z,1.00
2022-09-17T19:53:05.792Z,0.90
2022-09-17T19:58:13.016Z,0.90
2022-09-17T20:03:19.797Z,0.70
2022-09-17T20:08:26.648Z,0.90
2022-09-17T20:13:33.396Z,0.90
2022-09-17T20:18:41.236Z,1.00
2022-09-17T20:23:49.003Z,0.83
2022-09-17T20:28:56.467Z,1.00
2022-09-17T20:34:05.271Z,1.30
2022-09-17T20:39:18.185Z,1.17
2022-09-17T20:44:21.193Z,1.20
2022-09-17T20:49:28.246Z,1.00
2022-09-17T20:54:35.288Z,1.30
2022-09-17T20:59:43.768Z,1.30
2022-09-17T21:04:51.372Z,1.20
2022-09-17T21:09:58.178Z,1.27
2022-09-17T21:15:05.367Z,1.20
2022-09-17T21:20:12.322Z,1.10
2022-09-17T21:25:19.129Z,1.20
2022-09-17T21:30:26.084Z,1.10
2022-09-17T21:35:34.153Z,1.10
2022-09-17T21:40:43.910Z,1.10
2022-09-17T21:45:52.397Z,1.10
2022-09-17T21:51:02.241Z,1.27
2022-09-17T21:56:11.918Z,1.00
2022-09-17T22:01:21.830Z,1.20
2022-09-17T22:06:31.516Z,1.20
2022-09-17T22:11:39.311Z,1.20
2022-09-17T22:16:48.269Z,1.20
2022-09-17T22:21:56.679Z,1.00
2022-09-17T22:27:03.486Z,1.07
2022-09-17T22:32:10.376Z,1.00
2022-09-17T22:37:17.126Z,1.20
2022-09-17T22:42:24.059Z,1.10
2022-09-17T22:47:30.862Z,1.30
2022-09-17T22:52:37.679Z,1.30
2022-09-17T22:57:44.585Z,1.20
2022-09-17T23:02:52.595Z,1.13
2022-09-17T23:07:59.488Z,1.20
2022-09-17T23:13:06.624Z,1.20
2022-09-17T23:18:13.506Z,1.00
2022-09-17T23:23:24.413Z,1.10
2022-09-17T23:28:28.905Z,1.27
2022-09-17T23:33:36.105Z,1.30
2022-09-17T23:38:44.762Z,1.20
2022-09-17T23:43:54.259Z,0.97
2022-09-17T23:49:01.413Z,1.30
2022-09-17T23:54:08.246Z,1.10
2022-09-17T23:59:14.991Z,1.33
